Time;durP1;ratioP1;P1;durP2;ratioP2;P2;SDS_P1;SDS_P2;PMS_P1;PMS_P2;Temp;Humidity;BMP_temperature;BMP_pressure;BME280_temperature;BME280_humidity;BME280_pressure;Samples;Min_cycle;Max_cycle;Signal;HPM_P1;HPM_P2
2021/10/23 00:00:48;;;;;;;9.80;7.30;;;;;;;;;;4983170;28;20210;-80
2021/10/23 00:03:16;;;;;;;11.07;7.47;;;;;;;;;;4970343;28;20686;-80
2021/10/23 00:05:43;;;;;;;9.50;8.43;;;;;;;;;;4972279;28;20229;-80
2021/10/23 00:08:10;;;;;;;11.67;9.10;;;;;;;;;;4978056;28;20631;-80
2021/10/23 00:10:39;;;;;;;14.23;9.63;;;;;;;;;;4969697;28;20644;-80
2021/10/23 00:13:06;;;;;;;12.30;9.37;;;;;;;;;;4970199;28;20237;-80
2021/10/23 00:15:33;;;;;;;12.87;8.90;;;;;;;;;;4969764;28;20298;-80
2021/10/23 00:18:01;;;;;;;11.80;8.27;;;;;;;;;;4970198;28;20289;-80
2021/10/23 00:20:28;;;;;;;9.87;8.03;;;;;;;;;;4974827;28;20289;-80
2021/10/23 00:22:55;;;;;;;10.97;8.10;;;;;;;;;;4983231;28;20229;-80
2021/10/23 00:25:23;;;;;;;12.43;8.17;;;;;;;;;;4984016;28;20300;-80
2021/10/23 00:27:54;;;;;;;10.60;7.80;;;;;;;;;;4988893;28;20289;-80
2021/10/23 00:30:22;;;;;;;13.40;8.43;;;;;;;;;;4985808;28;20296;-80
2021/10/23 00:32:50;;;;;;;11.17;8.33;;;;;;;;;;4988386;28;20205;-80
2021/10/23 00:35:17;;;;;;;12.00;7.70;;;;;;;;;;4988692;28;20233;-80
2021/10/23 00:37:44;;;;;;;13.00;8.67;;;;;;;;;;4979484;28;20290;-80
2021/10/23 00:40:12;;;;;;;12.93;8.00;;;;;;;;;;4974931;28;20330;-80
2021/10/23 00:42:39;;;;;;;13.30;8.27;;;;;;;;;;4979796;28;20248;-79
2021/10/23 00:45:08;;;;;;;11.67;8.47;;;;;;;;;;4981412;28;20305;-80
2021/10/23 00:47:35;;;;;;;11.63;7.83;;;;;;;;;;4980120;28;20197;-80
2021/10/23 00:50:03;;;;;;;10.27;7.77;;;;;;;;;;4981298;28;20753;-80
2021/10/23 00:52:30;;;;;;;10.23;7.93;;;;;;;;;;4986627;28;20688;-80
2021/10/23 00:54:58;;;;;;;11.00;8.03;;;;;;;;;;4986156;28;20286;-80
2021/10/23 00:57:25;;;;;;;14.03;8.23;;;;;;;;;;4977789;28;20263;-80
2021/10/23 00:59:53;;;;;;;12.17;7.87;;;;;;;;;;4983274;28;20210;-79
2021/10/23 01:02:21;;;;;;;9.60;7.93;;;;;;;;;;4972269;28;20392;-80
2021/10/23 01:04:48;;;;;;;10.70;8.13;;;;;;;;;;4972511;28;20261;-80
2021/10/23 01:07:16;;;;;;;11.83;7.60;;;;;;;;;;4975368;28;20235;-79
2021/10/23 01:09:45;;;;;;;10.70;7.73;;;;;;;;;;4985420;28;20293;-80
2021/10/23 01:12:13;;;;;;;10.33;7.17;;;;;;;;;;4979887;28;20233;-80
2021/10/23 01:14:41;;;;;;;9.87;7.73;;;;;;;;;;4972606;28;20229;-80
2021/10/23 01:17:09;;;;;;;10.60;7.67;;;;;;;;;;4987867;28;20237;-79
2021/10/23 01:19:37;;;;;;;11.07;7.13;;;;;;;;;;4977283;28;20252;-80
2021/10/23 01:22:06;;;;;;;13.63;8.90;;;;;;;;;;4982448;28;20289;-79
2021/10/23 01:24:33;;;;;;;15.27;9.60;;;;;;;;;;4972926;28;20306;-80
2021/10/23 01:27:01;;;;;;;11.67;9.10;;;;;;;;;;4973039;28;20748;-80
2021/10/23 01:29:28;;;;;;;13.53;8.43;;;;;;;;;;4991356;28;20641;-79
2021/10/23 01:31:56;;;;;;;13.77;7.93;;;;;;;;;;4987289;28;20301;-80
2021/10/23 01:34:24;;;;;;;12.37;8.97;;;;;;;;;;4991207;28;20201;-80
2021/10/23 01:36:52;;;;;;;12.00;7.93;;;;;;;;;;5001501;28;20206;-80
2021/10/23 01:39:21;;;;;;;12.30;8.10;;;;;;;;;;4985963;28;20241;-80
2021/10/23 01:41:49;;;;;;;12.83;8.37;;;;;;;;;;4991060;28;20692;-80
2021/10/23 01:44:17;;;;;;;10.33;7.70;;;;;;;;;;4990730;28;20729;-79
2021/10/23 01:46:45;;;;;;;11.40;7.97;;;;;;;;;;4991036;28;20206;-80
2021/10/23 01:49:12;;;;;;;12.20;7.60;;;;;;;;;;4975603;28;20294;-80
2021/10/23 01:51:40;;;;;;;8.87;7.37;;;;;;;;;;4989666;28;20284;-79
2021/10/23 01:54:08;;;;;;;11.20;7.87;;;;;;;;;;4990514;28;20293;-80
2021/10/23 01:56:37;;;;;;;10.03;7.13;;;;;;;;;;4980954;28;20233;-80
2021/10/23 01:59:05;;;;;;;9.87;7.23;;;;;;;;;;4973772;28;20289;-80
2021/10/23 02:01:32;;;;;;;10.67;7.47;;;;;;;;;;4972507;28;20237;-80
2021/10/23 02:03:59;;;;;;;10.33;7.73;;;;;;;;;;4990955;28;20267;-80
2021/10/23 02:06:26;;;;;;;11.20;7.70;;;;;;;;;;4987201;28;20637;-80
2021/10/23 02:08:54;;;;;;;9.80;7.50;;;;;;;;;;4978993;28;20293;-80
2021/10/23 02:11:21;;;;;;;10.83;7.33;;;;;;;;;;4971744;28;20285;-80
2021/10/23 02:13:50;;;;;;;10.83;7.40;;;;;;;;;;4976611;28;20232;-80
2021/10/23 02:16:17;;;;;;;11.97;7.43;;;;;;;;;;4977396;28;20685;-80
2021/10/23 02:18:44;;;;;;;11.87;7.27;;;;;;;;;;4983756;28;20238;-79
2021/10/23 02:21:13;;;;;;;10.60;7.60;;;;;;;;;;4978040;28;20209;-80
2021/10/23 02:23:40;;;;;;;11.77;7.30;;;;;;;;;;4988436;28;20214;-80
2021/10/23 02:26:07;;;;;;;11.37;7.07;;;;;;;;;;4986937;28;20422;-80
2021/10/23 02:28:35;;;;;;;10.40;7.10;;;;;;;;;;4971247;28;20285;-80
2021/10/23 02:31:04;;;;;;;9.73;7.60;;;;;;;;;;4971428;28;20237;-80
2021/10/23 02:33:31;;;;;;;10.87;7.23;;;;;;;;;;4983902;28;20202;-80
2021/10/23 02:35:58;;;;;;;11.20;7.30;;;;;;;;;;4970458;28;20226;-80
2021/10/23 02:38:26;;;;;;;13.47;8.03;;;;;;;;;;4980297;28;20217;-80
2021/10/23 02:40:53;;;;;;;11.73;7.50;;;;;;;;;;4986695;28;20931;-80
2021/10/23 02:43:21;;;;;;;10.77;7.83;;;;;;;;;;4977783;28;20206;-79
2021/10/23 02:45:48;;;;;;;13.07;8.13;;;;;;;;;;4983888;28;20198;-79
2021/10/23 02:48:17;;;;;;;12.33;8.37;;;;;;;;;;4990181;28;20251;-79
2021/10/23 02:50:45;;;;;;;10.17;7.67;;;;;;;;;;4984101;28;20214;-80
2021/10/23 02:53:12;;;;;;;12.13;8.57;;;;;;;;;;4981509;28;20198;-80
2021/10/23 02:55:40;;;;;;;8.77;7.47;;;;;;;;;;4975673;28;20202;-80
2021/10/23 02:58:07;;;;;;;10.37;8.00;;;;;;;;;;4988053;28;20209;-79
2021/10/23 03:00:34;;;;;;;12.43;7.97;;;;;;;;;;4978419;28;20193;-79
2021/10/23 03:03:02;;;;;;;12.17;7.53;;;;;;;;;;4984050;28;20217;-79
2021/10/23 03:05:30;;;;;;;14.17;8.40;;;;;;;;;;4989536;28;20237;-79
2021/10/23 03:07:58;;;;;;;16.87;8.13;;;;;;;;;;4989861;28;20213;-80
2021/10/23 03:10:25;;;;;;;8.83;6.90;;;;;;;;;;4973718;28;20198;-80
2021/10/23 03:12:52;;;;;;;13.13;7.70;;;;;;;;;;4983111;28;20202;-80
2021/10/23 03:15:19;;;;;;;8.10;7.10;;;;;;;;;;4973404;28;20290;-79
2021/10/23 03:17:46;;;;;;;12.27;8.00;;;;;;;;;;4973403;28;20230;-80
2021/10/23 03:20:15;;;;;;;11.50;7.83;;;;;;;;;;4979519;28;20646;-79
2021/10/23 03:22:44;;;;;;;11.53;8.10;;;;;;;;;;4988951;28;20599;-80
2021/10/23 03:25:11;;;;;;;10.50;7.73;;;;;;;;;;4989150;28;20892;-80
2021/10/23 03:27:38;;;;;;;12.37;8.03;;;;;;;;;;4985913;28;20229;-80
2021/10/23 03:30:06;;;;;;;11.77;8.27;;;;;;;;;;4989505;28;20244;-80
2021/10/23 03:32:33;;;;;;;13.00;8.17;;;;;;;;;;4989233;28;20279;-80
2021/10/23 03:35:01;;;;;;;13.73;8.20;;;;;;;;;;4989935;28;20289;-80
2021/10/23 03:37:28;;;;;;;14.20;8.97;;;;;;;;;;4988554;28;20690;-80
2021/10/23 03:39:57;;;;;;;11.47;8.73;;;;;;;;;;4975803;28;20226;-80
2021/10/23 03:42:24;;;;;;;14.23;8.77;;;;;;;;;;4985906;28;20285;-80
2021/10/23 03:44:52;;;;;;;12.90;8.73;;;;;;;;;;4973059;28;20324;-80
2021/10/23 03:47:19;;;;;;;10.13;8.30;;;;;;;;;;4969839;28;20217;-80
2021/10/23 03:49:47;;;;;;;10.47;8.17;;;;;;;;;;4980921;28;20295;-79
2021/10/23 03:52:15;;;;;;;10.43;8.23;;;;;;;;;;4989656;28;20236;-80
2021/10/23 03:54:42;;;;;;;10.60;8.37;;;;;;;;;;4971021;28;20202;-79
2021/10/23 03:57:11;;;;;;;12.37;8.53;;;;;;;;;;4969962;28;20748;-80
2021/10/23 03:59:38;;;;;;;10.57;8.30;;;;;;;;;;4978271;28;20223;-80
2021/10/23 04:02:06;;;;;;;10.37;7.93;;;;;;;;;;4974715;28;20249;-79
2021/10/23 04:04:33;;;;;;;11.70;8.90;;;;;;;;;;4984892;28;20329;-80
2021/10/23 04:07:00;;;;;;;10.73;8.37;;;;;;;;;;4988486;28;20202;-80
2021/10/23 04:09:28;;;;;;;12.47;8.33;;;;;;;;;;4988936;28;20287;-80
2021/10/23 04:11:55;;;;;;;12.93;8.70;;;;;;;;;;4989038;28;20236;-79
2021/10/23 04:14:23;;;;;;;10.97;7.87;;;;;;;;;;4974482;28;20289;-79
2021/10/23 04:16:51;;;;;;;11.37;8.87;;;;;;;;;;4991021;28;20229;-79
2021/10/23 04:19:18;;;;;;;13.60;9.20;;;;;;;;;;4991416;28;20284;-80
2021/10/23 04:21:45;;;;;;;14.67;8.40;;;;;;;;;;4973602;28;20225;-80
2021/10/23 04:24:12;;;;;;;12.43;8.73;;;;;;;;;;4992036;28;20760;-80
2021/10/23 04:26:40;;;;;;;14.43;9.17;;;;;;;;;;4982974;28;20293;-80
2021/10/23 04:29:08;;;;;;;9.90;8.03;;;;;;;;;;4988407;28;20660;-79
2021/10/23 04:31:36;;;;;;;10.97;8.63;;;;;;;;;;4972916;28;20241;-80
2021/10/23 04:34:03;;;;;;;13.47;8.83;;;;;;;;;;4972780;28;20245;-80
2021/10/23 04:36:31;;;;;;;12.03;8.83;;;;;;;;;;4987301;28;20208;-80
2021/10/23 04:38:58;;;;;;;11.77;9.40;;;;;;;;;;4973684;28;20784;-79
2021/10/23 04:41:25;;;;;;;13.80;8.80;;;;;;;;;;4972623;28;20804;-80
2021/10/23 04:43:52;;;;;;;11.60;8.73;;;;;;;;;;4981110;28;20289;-80
2021/10/23 04:46:19;;;;;;;11.40;8.40;;;;;;;;;;4979788;28;20314;-80
2021/10/23 04:48:48;;;;;;;10.73;8.80;;;;;;;;;;4973124;28;20241;-79
2021/10/23 04:51:15;;;;;;;11.40;8.33;;;;;;;;;;4973274;28;20747;-80
2021/10/23 04:53:42;;;;;;;10.40;8.87;;;;;;;;;;4979885;28;20204;-80
2021/10/23 04:56:10;;;;;;;12.50;8.23;;;;;;;;;;4982069;28;20222;-80
2021/10/23 04:58:38;;;;;;;10.93;7.50;;;;;;;;;;4986035;28;20259;-79
2021/10/23 05:01:05;;;;;;;10.20;8.03;;;;;;;;;;4981992;28;20216;-80
2021/10/23 05:03:33;;;;;;;11.13;7.97;;;;;;;;;;4992223;28;20256;-80
2021/10/23 05:06:01;;;;;;;10.30;7.17;;;;;;;;;;4990882;28;20253;-79
2021/10/23 05:08:28;;;;;;;10.03;7.87;;;;;;;;;;4980332;28;20289;-79
2021/10/23 05:10:56;;;;;;;12.43;7.67;;;;;;;;;;4987606;28;20284;-79
2021/10/23 05:13:23;;;;;;;14.90;8.50;;;;;;;;;;4987959;28;20288;-80
2021/10/23 05:15:50;;;;;;;11.47;7.50;;;;;;;;;;4978791;28;20225;-80
2021/10/23 05:18:18;;;;;;;11.60;7.77;;;;;;;;;;4981514;28;20285;-80
2021/10/23 05:20:45;;;;;;;9.60;7.93;;;;;;;;;;4985507;28;20236;-80
2021/10/23 05:23:13;;;;;;;10.67;8.20;;;;;;;;;;4988217;28;20233;-79
2021/10/23 05:25:40;;;;;;;10.53;8.83;;;;;;;;;;4990162;28;20764;-79
2021/10/23 05:28:08;;;;;;;12.03;8.97;;;;;;;;;;4990276;28;20244;-80
2021/10/23 05:30:35;;;;;;;10.90;8.10;;;;;;;;;;4980248;28;20289;-79
2021/10/23 05:33:02;;;;;;;11.40;7.80;;;;;;;;;;4987165;28;20289;-80
2021/10/23 05:35:29;;;;;;;11.20;7.20;;;;;;;;;;4975075;28;20244;-80
2021/10/23 05:37:56;;;;;;;10.03;7.40;;;;;;;;;;4991073;28;20288;-80
2021/10/23 05:40:25;;;;;;;11.43;8.10;;;;;;;;;;4972172;28;20254;-80
2021/10/23 05:42:52;;;;;;;9.70;7.70;;;;;;;;;;4984594;28;20239;-80
2021/10/23 05:45:19;;;;;;;9.70;7.40;;;;;;;;;;4987866;28;20316;-79
2021/10/23 05:47:47;;;;;;;10.90;8.10;;;;;;;;;;4975296;28;20293;-80
2021/10/23 05:50:14;;;;;;;11.63;7.53;;;;;;;;;;4983948;28;20293;-80
2021/10/23 05:52:41;;;;;;;11.97;7.17;;;;;;;;;;4982342;28;20197;-80
2021/10/23 05:55:09;;;;;;;11.83;7.67;;;;;;;;;;4987672;28;20685;-80
2021/10/23 05:57:38;;;;;;;13.97;8.20;;;;;;;;;;4986443;28;20281;-80
2021/10/23 06:00:07;;;;;;;11.80;7.70;;;;;;;;;;4990488;28;20230;-80
2021/10/23 06:02:34;;;;;;;11.73;7.83;;;;;;;;;;4990910;28;20243;-80
2021/10/23 06:05:02;;;;;;;10.07;7.90;;;;;;;;;;4978557;28;20313;-80
2021/10/23 06:07:31;;;;;;;9.43;7.50;;;;;;;;;;4986945;28;20676;-80
2021/10/23 06:10:00;;;;;;;10.10;7.57;;;;;;;;;;4987015;28;20689;-79
2021/10/23 06:12:27;;;;;;;11.17;7.97;;;;;;;;;;4980353;28;20737;-80
2021/10/23 06:14:56;;;;;;;12.40;7.70;;;;;;;;;;4971941;28;20869;-80
2021/10/23 06:17:23;;;;;;;11.50;7.53;;;;;;;;;;4985960;28;20242;-80
2021/10/23 06:19:50;;;;;;;12.00;7.80;;;;;;;;;;4972456;28;20224;-80
2021/10/23 06:22:17;;;;;;;12.30;8.17;;;;;;;;;;4976481;28;20283;-80
2021/10/23 06:24:45;;;;;;;9.40;7.40;;;;;;;;;;4981445;28;20293;-79
2021/10/23 06:27:12;;;;;;;12.53;7.57;;;;;;;;;;4983558;28;20617;-80
2021/10/23 06:29:39;;;;;;;11.10;7.80;;;;;;;;;;4974810;28;20248;-79
2021/10/23 06:32:08;;;;;;;11.10;7.53;;;;;;;;;;4990554;28;20281;-80
2021/10/23 06:34:40;;;;;;;11.07;7.40;;;;;;;;;;4983797;28;20199;-80
2021/10/23 06:37:07;;;;;;;11.10;8.07;;;;;;;;;;4979590;28;20202;-79
2021/10/23 06:39:35;;;;;;;11.33;7.47;;;;;;;;;;4976903;28;20328;-80
2021/10/23 06:42:03;;;;;;;11.17;7.80;;;;;;;;;;4974056;28;20553;-80
2021/10/23 06:44:31;;;;;;;10.30;6.87;;;;;;;;;;4984759;28;20208;-79
2021/10/23 06:46:58;;;;;;;9.60;6.97;;;;;;;;;;4980589;28;20663;-80
2021/10/23 06:49:27;;;;;;;12.57;7.70;;;;;;;;;;4977306;28;20718;-81
2021/10/23 06:51:54;;;;;;;11.47;7.73;;;;;;;;;;4974495;28;20205;-81
2021/10/23 06:54:21;;;;;;;11.03;7.60;;;;;;;;;;4969385;28;20233;-78
2021/10/23 06:56:48;;;;;;;10.73;7.83;;;;;;;;;;4981632;28;20674;-80
2021/10/23 06:59:15;;;;;;;9.43;7.07;;;;;;;;;;4982177;28;20286;-79
2021/10/23 07:01:42;;;;;;;10.50;7.40;;;;;;;;;;4975941;28;20288;-79
2021/10/23 07:04:10;;;;;;;10.00;6.90;;;;;;;;;;4977434;28;20284;-79
2021/10/23 07:06:38;;;;;;;12.30;7.20;;;;;;;;;;4986764;28;20225;-80
2021/10/23 07:09:05;;;;;;;10.57;7.40;;;;;;;;;;4981162;28;20232;-80
2021/10/23 07:11:33;;;;;;;9.90;7.30;;;;;;;;;;4972559;28;20637;-79
2021/10/23 07:14:00;;;;;;;11.00;7.53;;;;;;;;;;4986914;28;20305;-78
2021/10/23 07:16:27;;;;;;;12.30;7.60;;;;;;;;;;4986623;28;20254;-80
2021/10/23 07:18:54;;;;;;;11.13;6.70;;;;;;;;;;4980842;28;20296;-80
2021/10/23 07:21:23;;;;;;;7.93;6.70;;;;;;;;;;4988960;28;20290;-80
2021/10/23 07:23:53;;;;;;;11.73;6.90;;;;;;;;;;4985607;28;20206;-80
2021/10/23 07:26:20;;;;;;;10.93;6.90;;;;;;;;;;4985187;28;20320;-80
2021/10/23 07:28:48;;;;;;;8.20;6.67;;;;;;;;;;4978402;28;20576;-80
2021/10/23 07:31:15;;;;;;;10.50;7.10;;;;;;;;;;4981182;28;20292;-80
2021/10/23 07:33:58;;;;;;;15.43;8.23;;;;;;;;;;4978582;28;20294;-79
2021/10/23 07:36:25;;;;;;;13.07;9.33;;;;;;;;;;4984094;28;20583;-81
2021/10/23 07:38:54;;;;;;;11.90;8.63;;;;;;;;;;4976120;28;20210;-80
2021/10/23 07:41:21;;;;;;;8.17;7.07;;;;;;;;;;4983861;28;20323;-79
2021/10/23 07:43:48;;;;;;;8.90;7.20;;;;;;;;;;4984526;28;20638;-79
2021/10/23 07:46:16;;;;;;;9.07;6.47;;;;;;;;;;4988109;28;20589;-80
2021/10/23 07:48:43;;;;;;;9.43;6.57;;;;;;;;;;4979047;28;20289;-80
2021/10/23 07:51:11;;;;;;;8.90;6.20;;;;;;;;;;4977789;28;20220;-80
2021/10/23 07:53:38;;;;;;;8.57;6.17;;;;;;;;;;4978354;28;20288;-79
2021/10/23 07:56:07;;;;;;;7.50;5.60;;;;;;;;;;4986165;28;20194;-80
2021/10/23 07:58:34;;;;;;;8.00;5.77;;;;;;;;;;4978679;28;20229;-80
2021/10/23 08:01:03;;;;;;;8.23;6.03;;;;;;;;;;4975352;28;20295;-79
2021/10/23 08:03:30;;;;;;;10.17;5.37;;;;;;;;;;4985235;28;20713;-80
2021/10/23 08:05:57;;;;;;;6.73;5.33;;;;;;;;;;4982124;28;20297;-80
2021/10/23 08:08:24;;;;;;;7.17;5.27;;;;;;;;;;4986266;28;20285;-80
2021/10/23 08:10:52;;;;;;;8.07;5.60;;;;;;;;;;4970471;28;20306;-80
2021/10/23 08:13:20;;;;;;;10.57;6.13;;;;;;;;;;4988249;28;20229;-80
2021/10/23 08:15:47;;;;;;;8.93;5.90;;;;;;;;;;4980567;28;20286;-79
2021/10/23 08:18:16;;;;;;;13.17;8.90;;;;;;;;;;4985342;28;20297;-80
2021/10/23 08:20:44;;;;;;;10.37;7.77;;;;;;;;;;4988636;28;20211;-79
2021/10/23 08:23:11;;;;;;;12.63;8.17;;;;;;;;;;4985843;28;20222;-79
2021/10/23 08:25:38;;;;;;;10.10;7.07;;;;;;;;;;4969827;28;20250;-80
2021/10/23 08:28:06;;;;;;;10.03;6.90;;;;;;;;;;4981891;28;20295;-79
2021/10/23 08:30:35;;;;;;;9.43;6.43;;;;;;;;;;4985179;28;20202;-79
2021/10/23 08:33:02;;;;;;;11.10;6.07;;;;;;;;;;4982717;28;20249;-80
2021/10/23 08:35:29;;;;;;;8.97;5.70;;;;;;;;;;4982286;28;20621;-79
2021/10/23 08:37:56;;;;;;;9.03;5.67;;;;;;;;;;4988037;28;20293;-80
2021/10/23 08:40:28;;;;;;;9.73;5.63;;;;;;;;;;4988228;28;20308;-79
2021/10/23 08:42:55;;;;;;;9.73;5.17;;;;;;;;;;4986334;28;20289;-79
2021/10/23 08:45:23;;;;;;;9.77;5.70;;;;;;;;;;4981639;28;20248;-79
2021/10/23 08:47:52;;;;;;;9.87;5.30;;;;;;;;;;4976688;28;20301;-80
2021/10/23 08:50:20;;;;;;;10.40;5.50;;;;;;;;;;4977471;28;20228;-80
2021/10/23 08:52:48;;;;;;;7.07;4.87;;;;;;;;;;4978862;28;20233;-80
2021/10/23 08:55:17;;;;;;;7.97;5.20;;;;;;;;;;4987630;28;20259;-79
2021/10/23 08:57:44;;;;;;;8.93;5.07;;;;;;;;;;4973679;28;20210;-80
2021/10/23 09:00:24;;;;;;;9.63;5.23;;;;;;;;;;4977626;28;20233;-79
2021/10/23 09:02:52;;;;;;;8.07;5.07;;;;;;;;;;4991542;28;20310;-80
2021/10/23 09:05:19;;;;;;;7.80;5.00;;;;;;;;;;4984033;28;20194;-80
2021/10/23 09:07:47;;;;;;;9.13;4.57;;;;;;;;;;4974702;28;20309;-80
2021/10/23 09:10:15;;;;;;;6.93;4.63;;;;;;;;;;4979760;28;20202;-80
2021/10/23 09:12:42;;;;;;;7.80;4.80;;;;;;;;;;4992527;28;20248;-76
2021/10/23 09:15:11;;;;;;;10.27;7.00;;;;;;;;;;4974884;28;20242;-76
2021/10/23 09:17:40;;;;;;;9.80;6.87;;;;;;;;;;4980330;28;20285;-76
2021/10/23 09:20:10;;;;;;;17.17;5.47;;;;;;;;;;4984721;28;20202;-76
2021/10/23 09:22:38;;;;;;;9.13;4.60;;;;;;;;;;4983991;28;20319;-75
2021/10/23 09:25:17;;;;;;;6.83;4.20;;;;;;;;;;4985972;28;20201;-75
2021/10/23 09:27:49;;;;;;;6.90;4.10;;;;;;;;;;4981157;28;20221;-80
2021/10/23 09:30:18;;;;;;;6.33;3.40;;;;;;;;;;4976844;28;20226;-79
2021/10/23 09:32:50;;;;;;;6.47;3.53;;;;;;;;;;4982327;28;20244;-80
2021/10/23 09:35:21;;;;;;;6.37;3.33;;;;;;;;;;4988031;28;20209;-79
2021/10/23 09:37:49;;;;;;;6.67;3.60;;;;;;;;;;4978461;28;20207;-80
2021/10/23 09:40:20;;;;;;;6.47;3.13;;;;;;;;;;4979610;28;20246;-80
2021/10/23 09:42:47;;;;;;;5.60;2.77;;;;;;;;;;4987498;28;20676;-79
2021/10/23 09:45:17;;;;;;;4.33;2.87;;;;;;;;;;4979120;28;20737;-80
2021/10/23 09:47:45;;;;;;;5.55;2.40;;;;;;;;;;4983044;28;20222;-80
2021/10/23 09:50:14;;;;;;;4.55;2.58;;;;;;;;;;4973757;28;20205;-79
2021/10/23 09:52:56;;;;;;;6.20;2.40;;;;;;;;;;4976400;28;20285;-80
2021/10/23 09:55:25;;;;;;;6.13;2.10;;;;;;;;;;4980459;28;20202;-80
2021/10/23 09:58:06;;;;;;;3.90;1.30;;;;;;;;;;4987079;28;20289;-80
2021/10/23 10:00:33;;;;;;;3.90;1.45;;;;;;;;;;4977899;28;20202;-80
2021/10/23 10:03:01;;;;;;;4.97;1.73;;;;;;;;;;4989850;28;20280;-80
2021/10/23 10:05:31;;;;;;;2.83;1.40;;;;;;;;;;4973882;28;20634;-80
2021/10/23 10:07:59;;;;;;;4.82;1.27;;;;;;;;;;4978634;28;20229;-79
2021/10/23 10:10:27;;;;;;;3.13;1.50;;;;;;;;;;4976675;28;20285;-80
2021/10/23 10:12:55;;;;;;;2.20;0.90;;;;;;;;;;4985127;28;20285;-79
2021/10/23 10:15:23;;;;;;;4.07;1.13;;;;;;;;;;4989955;28;20621;-80
2021/10/23 10:17:50;;;;;;;1.48;0.85;;;;;;;;;;4990048;28;20301;-79
2021/10/23 10:20:18;;;;;;;1.20;0.90;;;;;;;;;;4982282;28;20284;-77
2021/10/23 10:22:51;;;;;;;3.38;1.25;;;;;;;;;;4990090;28;20224;-78
2021/10/23 10:25:19;;;;;;;2.63;0.98;;;;;;;;;;4977878;28;20202;-78
2021/10/23 10:27:51;;;;;;;1.75;0.90;;;;;;;;;;4983634;28;20223;-78
2021/10/23 10:30:23;;;;;;;2.13;0.80;;;;;;;;;;4983316;28;20201;-78
2021/10/23 10:32:50;;;;;;;3.28;1.23;;;;;;;;;;4980170;28;20221;-77
2021/10/23 10:35:32;;;;;;;2.10;1.15;;;;;;;;;;4987651;28;20654;-77
2021/10/23 10:43:34;;;;;;;2.10;1.00;;;;;;;;;;4982725;28;20225;-78
2021/10/23 10:46:03;;;;;;;3.08;1.30;;;;;;;;;;4986690;28;20730;-79
2021/10/23 10:48:45;;;;;;;4.15;1.33;;;;;;;;;;4980614;28;20743;-78
2021/10/23 10:51:24;;;;;;;2.70;1.30;;;;;;;;;;4984649;28;20201;-77
2021/10/23 10:54:05;;;;;;;4.35;1.20;;;;;;;;;;4989422;28;20285;-77
2021/10/23 10:56:47;;;;;;;3.58;1.23;;;;;;;;;;4980679;28;20203;-76
2021/10/23 10:59:35;;;;;;;3.25;1.00;;;;;;;;;;4979551;28;20220;-77
2021/10/23 11:02:09;;;;;;;2.05;1.30;;;;;;;;;;4984304;28;20313;-77
2021/10/23 11:04:56;;;;;;;3.55;1.20;;;;;;;;;;4978950;28;20637;-77
2021/10/23 11:07:23;;;;;;;2.90;1.30;;;;;;;;;;4975648;28;20311;-77
2021/10/23 11:09:50;;;;;;;2.10;1.20;;;;;;;;;;4979565;28;20280;-77
2021/10/23 11:12:18;;;;;;;2.42;1.20;;;;;;;;;;4984167;28;20289;-77
2021/10/23 11:14:47;;;;;;;2.10;1.20;;;;;;;;;;4980368;28;20263;-77
2021/10/23 11:17:19;;;;;;;3.22;1.20;;;;;;;;;;4982287;28;20238;-77
2021/10/23 11:19:49;;;;;;;2.55;1.13;;;;;;;;;;4990107;28;20569;-77
2021/10/23 11:22:17;;;;;;;3.15;1.35;;;;;;;;;;4993215;28;20213;-76
2021/10/23 11:24:45;;;;;;;2.10;1.30;;;;;;;;;;4979629;28;20867;-77
2021/10/23 11:27:24;;;;;;;2.83;1.20;;;;;;;;;;4980553;28;20309;-77
2021/10/23 11:30:05;;;;;;;3.42;1.35;;;;;;;;;;4972730;28;20293;-77
2021/10/23 11:32:32;;;;;;;3.08;1.50;;;;;;;;;;4972769;28;20230;-77
2021/10/23 11:35:00;;;;;;;3.95;1.60;;;;;;;;;;4981020;28;20393;-77
2021/10/23 11:37:27;;;;;;;3.33;1.40;;;;;;;;;;4981106;28;20895;-76
2021/10/23 11:39:58;;;;;;;2.95;1.38;;;;;;;;;;4981401;28;20266;-76
2021/10/23 11:42:26;;;;;;;3.20;1.30;;;;;;;;;;4979649;28;20202;-76
2021/10/23 11:44:54;;;;;;;2.80;1.30;;;;;;;;;;4982832;28;20628;-77
2021/10/23 11:47:26;;;;;;;3.45;1.52;;;;;;;;;;4979313;28;20254;-77
2021/10/23 11:49:54;;;;;;;3.60;1.65;;;;;;;;;;4973736;28;20207;-76
2021/10/23 11:52:21;;;;;;;3.65;1.55;;;;;;;;;;4977888;28;20237;-77
2021/10/23 11:54:49;;;;;;;4.50;1.58;;;;;;;;;;4985902;28;20285;-76
2021/10/23 11:57:31;;;;;;;3.10;1.70;;;;;;;;;;4974468;28;20285;-77
2021/10/23 11:59:58;;;;;;;3.53;1.30;;;;;;;;;;4981414;28;20221;-76
2021/10/23 12:02:37;;;;;;;3.30;1.60;;;;;;;;;;4980542;28;20648;-76
2021/10/23 12:05:17;;;;;;;2.22;1.30;;;;;;;;;;4983049;28;20297;-76
2021/10/23 12:07:44;;;;;;;2.65;1.58;;;;;;;;;;4985109;28;20321;-76
2021/10/23 12:10:12;;;;;;;3.92;1.55;;;;;;;;;;4989603;28;20293;-76
2021/10/23 12:12:39;;;;;;;2.90;1.80;;;;;;;;;;4988710;28;20289;-76
2021/10/23 12:15:16;;;;;;;3.72;1.80;;;;;;;;;;4973818;28;20237;-76
2021/10/23 12:17:44;;;;;;;2.97;1.73;;;;;;;;;;4979703;28;20194;-76
2021/10/23 12:20:15;;;;;;;2.78;1.63;;;;;;;;;;4978332;28;20319;-76
2021/10/23 12:22:43;;;;;;;3.05;2.00;;;;;;;;;;4988297;28;20204;-76
2021/10/23 12:25:11;;;;;;;5.40;2.10;;;;;;;;;;4984565;28;20289;-76
2021/10/23 12:27:39;;;;;;;2.72;1.80;;;;;;;;;;4969923;28;20229;-76
2021/10/23 12:30:07;;;;;;;2.60;1.90;;;;;;;;;;4972004;28;20233;-76
2021/10/23 12:32:37;;;;;;;4.38;1.80;;;;;;;;;;4988299;28;20704;-76
2021/10/23 12:35:07;;;;;;;4.50;1.80;;;;;;;;;;4988250;28;20202;-76
2021/10/23 12:37:36;;;;;;;4.40;2.10;;;;;;;;;;4990416;28;20206;-76
2021/10/23 12:40:05;;;;;;;3.43;1.80;;;;;;;;;;4991823;28;20762;-76
2021/10/23 12:42:32;;;;;;;3.80;1.70;;;;;;;;;;4992533;28;20234;-76
2021/10/23 12:44:59;;;;;;;5.33;2.33;;;;;;;;;;4992062;28;20256;-76
2021/10/23 12:47:26;;;;;;;4.17;2.00;;;;;;;;;;4991689;28;20308;-76
2021/10/23 12:49:54;;;;;;;3.28;1.77;;;;;;;;;;4985957;28;20294;-76
2021/10/23 12:52:22;;;;;;;4.63;2.00;;;;;;;;;;4988401;28;20241;-76
2021/10/23 12:54:50;;;;;;;3.67;1.88;;;;;;;;;;4973069;28;20202;-77
2021/10/23 12:57:17;;;;;;;4.63;1.92;;;;;;;;;;4972557;28;20298;-76
2021/10/23 12:59:44;;;;;;;3.50;1.90;;;;;;;;;;4976904;28;20652;-76
2021/10/23 13:02:12;;;;;;;3.65;1.67;;;;;;;;;;4991130;28;20400;-76
2021/10/23 13:04:39;;;;;;;4.45;2.03;;;;;;;;;;4989138;28;20583;-76
2021/10/23 13:07:06;;;;;;;5.38;1.63;;;;;;;;;;4991520;28;20312;-76
2021/10/23 13:09:34;;;;;;;4.28;1.50;;;;;;;;;;4991807;28;20717;-76
2021/10/23 13:12:02;;;;;;;3.63;1.90;;;;;;;;;;4979655;28;20293;-76
2021/10/23 13:14:29;;;;;;;3.80;2.00;;;;;;;;;;4972572;28;20221;-76
2021/10/23 13:16:56;;;;;;;3.90;2.10;;;;;;;;;;4972587;28;20230;-76
2021/10/23 13:19:23;;;;;;;5.63;2.10;;;;;;;;;;4972379;28;20261;-76
2021/10/23 13:21:51;;;;;;;4.73;2.37;;;;;;;;;;4986607;28;20194;-76
2021/10/23 13:24:18;;;;;;;4.13;2.53;;;;;;;;;;4990306;28;20607;-76
2021/10/23 13:26:47;;;;;;;3.57;1.80;;;;;;;;;;4988141;28;20261;-76
2021/10/23 13:29:15;;;;;;;4.33;1.83;;;;;;;;;;4975636;28;20713;-76
2021/10/23 13:31:43;;;;;;;3.60;1.60;;;;;;;;;;4991924;28;20220;-76
2021/10/23 13:34:10;;;;;;;3.77;1.90;;;;;;;;;;4992034;28;20284;-76
2021/10/23 13:36:37;;;;;;;3.57;1.73;;;;;;;;;;4990169;28;20198;-76
2021/10/23 13:39:05;;;;;;;3.95;1.80;;;;;;;;;;4979439;28;20285;-76
2021/10/23 13:41:32;;;;;;;2.83;1.60;;;;;;;;;;4980768;28;20237;-76
2021/10/23 13:44:01;;;;;;;2.35;1.60;;;;;;;;;;4972273;28;20293;-76
2021/10/23 13:46:28;;;;;;;3.15;1.70;;;;;;;;;;4976687;28;20268;-76
2021/10/23 13:48:56;;;;;;;5.85;1.77;;;;;;;;;;4989884;28;20653;-76
2021/10/23 13:51:23;;;;;;;2.20;1.50;;;;;;;;;;4988722;28;20216;-76
2021/10/23 13:53:50;;;;;;;4.20;1.70;;;;;;;;;;4974187;28;20290;-76
2021/10/23 13:56:17;;;;;;;3.38;1.60;;;;;;;;;;4981908;28;20290;-76
2021/10/23 13:58:44;;;;;;;4.38;1.80;;;;;;;;;;4983803;28;20293;-76
2021/10/23 14:01:13;;;;;;;3.65;1.58;;;;;;;;;;4991340;28;20288;-76
2021/10/23 14:03:41;;;;;;;2.05;1.30;;;;;;;;;;4982594;28;20221;-76
2021/10/23 14:06:08;;;;;;;3.47;1.52;;;;;;;;;;4981144;28;20202;-76
2021/10/23 14:08:35;;;;;;;2.55;1.60;;;;;;;;;;4971289;28;20317;-76
2021/10/23 14:11:02;;;;;;;3.67;1.70;;;;;;;;;;4974112;28;20309;-76
2021/10/23 14:13:29;;;;;;;4.15;1.52;;;;;;;;;;4984132;28;20289;-76
2021/10/23 14:15:57;;;;;;;3.60;1.30;;;;;;;;;;4972456;28;20203;-76
2021/10/23 14:18:28;;;;;;;2.33;1.33;;;;;;;;;;4985770;28;20561;-76
2021/10/23 14:20:55;;;;;;;3.83;1.65;;;;;;;;;;4990225;28;20210;-75
2021/10/23 14:23:22;;;;;;;2.50;1.23;;;;;;;;;;4988950;28;20201;-76
2021/10/23 14:25:52;;;;;;;3.58;1.60;;;;;;;;;;4987199;28;20198;-76
2021/10/23 14:31:00;;;;;;;3.60;1.23;;;;;;;;;;4990095;28;20198;-76
2021/10/23 14:33:29;;;;;;;2.55;1.20;;;;;;;;;;4990456;28;20226;-76
2021/10/23 14:35:56;;;;;;;1.63;1.20;;;;;;;;;;4990687;28;20630;-76
2021/10/23 14:38:23;;;;;;;1.83;1.42;;;;;;;;;;4990315;28;20613;-76
2021/10/23 14:40:50;;;;;;;3.67;1.40;;;;;;;;;;4989929;28;20272;-76
2021/10/23 14:43:18;;;;;;;2.10;1.40;;;;;;;;;;4989577;28;20285;-76
2021/10/23 14:45:45;;;;;;;4.03;1.60;;;;;;;;;;4989451;28;20719;-76
2021/10/23 14:48:12;;;;;;;2.75;1.23;;;;;;;;;;4990523;28;20261;-76
2021/10/23 14:50:41;;;;;;;2.95;1.50;;;;;;;;;;4990624;28;20289;-75